sensor_id;sensor_type;location;lat;lon;timestamp;pressure;altitude;pressure_sealevel;temperature;humidity
56689;BME280;42565;53.342;-1.534;2024-03-25T00:00:27;98000.73;;;7.65;50.79
56689;BME280;42565;53.342;-1.534;2024-03-25T00:02:54;97995.06;;;7.62;50.60
56689;BME280;42565;53.342;-1.534;2024-03-25T00:05:21;97990.09;;;7.76;50.86
56689;BME280;42565;53.342;-1.534;2024-03-25T00:07:48;97985.54;;;7.55;50.93
56689;BME280;42565;53.342;-1.534;2024-03-25T00:10:16;97980.65;;;7.94;51.09
56689;BME280;42565;53.342;-1.534;2024-03-25T00:12:42;97974.37;;;7.98;50.58
56689;BME280;42565;53.342;-1.534;2024-03-25T00:15:09;97968.16;;;8.72;49.78
56689;BME280;42565;53.342;-1.534;2024-03-25T00:17:36;97968.67;;;9.02;49.05
56689;BME280;42565;53.342;-1.534;2024-03-25T00:20:05;97961.98;;;9.03;48.71
56689;BME280;42565;53.342;-1.534;2024-03-25T00:22:32;97958.27;;;8.36;49.87
56689;BME280;42565;53.342;-1.534;2024-03-25T00:25:00;97952.62;;;8.18;50.51
56689;BME280;42565;53.342;-1.534;2024-03-25T00:27:26;97945.50;;;8.48;50.22
56689;BME280;42565;53.342;-1.534;2024-03-25T00:29:54;97948.88;;;8.30;50.59
56689;BME280;42565;53.342;-1.534;2024-03-25T00:32:21;97949.19;;;8.42;50.48
56689;BME280;42565;53.342;-1.534;2024-03-25T00:34:47;97950.80;;;8.03;51.04
56689;BME280;42565;53.342;-1.534;2024-03-25T00:37:14;97943.33;;;7.80;51.13
56689;BME280;42565;53.342;-1.534;2024-03-25T00:39:42;97942.71;;;7.76;50.99
56689;BME280;42565;53.342;-1.534;2024-03-25T00:42:08;97939.55;;;7.79;51.25
56689;BME280;42565;53.342;-1.534;2024-03-25T00:44:36;97940.63;;;8.15;50.81
56689;BME280;42565;53.342;-1.534;2024-03-25T00:47:04;97937.94;;;7.81;51.11
56689;BME280;42565;53.342;-1.534;2024-03-25T00:49:31;97934.21;;;8.75;50.50
56689;BME280;42565;53.342;-1.534;2024-03-25T00:51:58;97929.85;;;8.50;50.90
56689;BME280;42565;53.342;-1.534;2024-03-25T00:54:24;97925.97;;;8.58;50.12
56689;BME280;42565;53.342;-1.534;2024-03-25T00:56:51;97924.17;;;8.26;50.41
56689;BME280;42565;53.342;-1.534;2024-03-25T00:59:19;97919.60;;;8.07;50.87
56689;BME280;42565;53.342;-1.534;2024-03-25T01:01:46;97919.29;;;8.49;50.11
56689;BME280;42565;53.342;-1.534;2024-03-25T01:04:14;97916.76;;;8.44;50.62
56689;BME280;42565;53.342;-1.534;2024-03-25T01:06:41;97914.34;;;8.09;50.72
56689;BME280;42565;53.342;-1.534;2024-03-25T01:09:08;97910.46;;;9.02;50.17
56689;BME280;42565;53.342;-1.534;2024-03-25T01:11:36;97905.23;;;8.75;49.28
56689;BME280;42565;53.342;-1.534;2024-03-25T01:14:03;97904.49;;;9.31;48.57
56689;BME280;42565;53.342;-1.534;2024-03-25T01:16:30;97899.36;;;9.31;48.26
56689;BME280;42565;53.342;-1.534;2024-03-25T01:18:57;97898.03;;;9.38;48.00
56689;BME280;42565;53.342;-1.534;2024-03-25T01:21:23;97892.32;;;8.68;48.71
56689;BME280;42565;53.342;-1.534;2024-03-25T01:23:50;97886.90;;;8.37;48.74
56689;BME280;42565;53.342;-1.534;2024-03-25T01:26:17;97889.97;;;9.30;48.04
56689;BME280;42565;53.342;-1.534;2024-03-25T01:28:44;97886.59;;;8.50;48.08
56689;BME280;42565;53.342;-1.534;2024-03-25T01:31:11;97882.30;;;8.05;49.93
56689;BME280;42565;53.342;-1.534;2024-03-25T01:33:38;97883.94;;;8.56;49.47
56689;BME280;42565;53.342;-1.534;2024-03-25T01:36:05;97883.04;;;7.58;51.45
56689;BME280;42565;53.342;-1.534;2024-03-25T01:38:32;97875.01;;;8.10;51.60
56689;BME280;42565;53.342;-1.534;2024-03-25T01:41:07;97873.08;;;8.04;51.61
56689;BME280;42565;53.342;-1.534;2024-03-25T01:43:35;97866.72;;;7.55;52.70
56689;BME280;42565;53.342;-1.534;2024-03-25T01:46:02;97860.45;;;7.46;52.47
56689;BME280;42565;53.342;-1.534;2024-03-25T01:48:29;97857.73;;;8.25;51.23
56689;BME280;42565;53.342;-1.534;2024-03-25T01:50:57;97852.69;;;8.28;50.64
56689;BME280;42565;53.342;-1.534;2024-03-25T01:53:25;97853.53;;;7.88;51.25
56689;BME280;42565;53.342;-1.534;2024-03-25T01:55:55;97857.28;;;7.36;52.09
56689;BME280;42565;53.342;-1.534;2024-03-25T01:58:23;97853.90;;;7.99;51.42
56689;BME280;42565;53.342;-1.534;2024-03-25T02:00:51;97851.20;;;7.68;52.06
56689;BME280;42565;53.342;-1.534;2024-03-25T02:03:18;97843.68;;;7.05;53.86
56689;BME280;42565;53.342;-1.534;2024-03-25T02:05:47;97837.05;;;7.77;52.56
56689;BME280;42565;53.342;-1.534;2024-03-25T02:08:14;97832.49;;;7.08;54.20
56689;BME280;42565;53.342;-1.534;2024-03-25T02:10:43;97832.24;;;6.37;54.97
56689;BME280;42565;53.342;-1.534;2024-03-25T02:13:10;97826.77;;;6.64;55.61
56689;BME280;42565;53.342;-1.534;2024-03-25T02:15:37;97819.55;;;6.58;55.32
56689;BME280;42565;53.342;-1.534;2024-03-25T02:18:05;97816.35;;;7.02;56.40
56689;BME280;42565;53.342;-1.534;2024-03-25T02:20:33;97810.26;;;7.41;54.34
56689;BME280;42565;53.342;-1.534;2024-03-25T02:23:00;97810.36;;;6.90;54.40
56689;BME280;42565;53.342;-1.534;2024-03-25T02:25:28;97802.53;;;6.73;55.96
56689;BME280;42565;53.342;-1.534;2024-03-25T02:27:57;97793.12;;;6.90;55.84
56689;BME280;42565;53.342;-1.534;2024-03-25T02:30:25;97791.02;;;7.13;56.04
56689;BME280;42565;53.342;-1.534;2024-03-25T02:32:52;97784.72;;;6.78;55.88
56689;BME280;42565;53.342;-1.534;2024-03-25T02:35:20;97780.68;;;6.77;56.33
56689;BME280;42565;53.342;-1.534;2024-03-25T02:37:49;97769.69;;;6.63;55.46
56689;BME280;42565;53.342;-1.534;2024-03-25T02:40:19;97765.57;;;7.04;54.82
56689;BME280;42565;53.342;-1.534;2024-03-25T02:42:47;97759.94;;;7.12;55.53
56689;BME280;42565;53.342;-1.534;2024-03-25T02:45:14;97759.30;;;7.62;53.74
56689;BME280;42565;53.342;-1.534;2024-03-25T02:47:42;97756.27;;;7.65;53.61
56689;BME280;42565;53.342;-1.534;2024-03-25T02:50:09;97749.34;;;7.45;54.13
56689;BME280;42565;53.342;-1.534;2024-03-25T02:52:37;97752.52;;;7.23;54.85
56689;BME280;42565;53.342;-1.534;2024-03-25T02:55:05;97744.70;;;7.13;54.97
56689;BME280;42565;53.342;-1.534;2024-03-25T02:57:32;97742.85;;;6.69;56.08
56689;BME280;42565;53.342;-1.534;2024-03-25T03:00:00;97738.27;;;6.42;56.69
56689;BME280;42565;53.342;-1.534;2024-03-25T03:02:26;97734.04;;;6.89;55.76
56689;BME280;42565;53.342;-1.534;2024-03-25T03:04:53;97730.67;;;6.47;56.78
56689;BME280;42565;53.342;-1.534;2024-03-25T03:07:20;97728.53;;;5.91;59.15
56689;BME280;42565;53.342;-1.534;2024-03-25T03:09:47;97726.07;;;6.09;59.16
56689;BME280;42565;53.342;-1.534;2024-03-25T03:12:14;97720.53;;;5.83;59.18
56689;BME280;42565;53.342;-1.534;2024-03-25T03:14:42;97711.12;;;6.03;58.64
56689;BME280;42565;53.342;-1.534;2024-03-25T03:17:09;97705.53;;;5.64;59.30
56689;BME280;42565;53.342;-1.534;2024-03-25T03:19:36;97698.25;;;6.12;59.03
56689;BME280;42565;53.342;-1.534;2024-03-25T03:22:04;97697.58;;;6.42;58.18
56689;BME280;42565;53.342;-1.534;2024-03-25T03:24:31;97692.88;;;6.49;56.99
56689;BME280;42565;53.342;-1.534;2024-03-25T03:26:58;97688.57;;;6.88;55.61
56689;BME280;42565;53.342;-1.534;2024-03-25T03:29:25;97686.75;;;6.75;56.84
56689;BME280;42565;53.342;-1.534;2024-03-25T03:31:52;97682.74;;;6.95;55.45
56689;BME280;42565;53.342;-1.534;2024-03-25T03:34:19;97676.68;;;7.10;55.07
56689;BME280;42565;53.342;-1.534;2024-03-25T03:36:47;97671.45;;;6.84;55.22
56689;BME280;42565;53.342;-1.534;2024-03-25T03:39:15;97662.89;;;6.89;55.77
56689;BME280;42565;53.342;-1.534;2024-03-25T03:41:42;97661.65;;;7.00;55.41
56689;BME280;42565;53.342;-1.534;2024-03-25T03:44:09;97658.28;;;7.41;54.53
56689;BME280;42565;53.342;-1.534;2024-03-25T03:46:36;97656.22;;;7.50;53.98
56689;BME280;42565;53.342;-1.534;2024-03-25T03:49:04;97657.64;;;7.13;54.08
56689;BME280;42565;53.342;-1.534;2024-03-25T03:51:31;97658.80;;;7.31;54.60
56689;BME280;42565;53.342;-1.534;2024-03-25T03:53:57;97659.39;;;7.35;54.49
56689;BME280;42565;53.342;-1.534;2024-03-25T03:56:25;97653.16;;;7.00;54.84
56689;BME280;42565;53.342;-1.534;2024-03-25T03:58:52;97646.02;;;6.82;55.78
56689;BME280;42565;53.342;-1.534;2024-03-25T04:01:19;97643.82;;;7.23;54.78
56689;BME280;42565;53.342;-1.534;2024-03-25T04:03:46;97645.30;;;6.66;55.10
56689;BME280;42565;53.342;-1.534;2024-03-25T04:06:18;97641.73;;;6.69;56.28
56689;BME280;42565;53.342;-1.534;2024-03-25T04:08:45;97641.23;;;6.97;56.00
56689;BME280;42565;53.342;-1.534;2024-03-25T04:11:12;97640.48;;;7.14;55.27
56689;BME280;42565;53.342;-1.534;2024-03-25T04:13:46;97634.22;;;6.98;55.13
56689;BME280;42565;53.342;-1.534;2024-03-25T04:16:14;97635.51;;;7.95;53.42
56689;BME280;42565;53.342;-1.534;2024-03-25T04:18:40;97633.11;;;7.11;53.45
56689;BME280;42565;53.342;-1.534;2024-03-25T04:21:11;97629.54;;;6.97;55.05
56689;BME280;42565;53.342;-1.534;2024-03-25T04:23:39;97625.91;;;7.13;54.71
56689;BME280;42565;53.342;-1.534;2024-03-25T04:26:06;97616.07;;;7.37;54.19
56689;BME280;42565;53.342;-1.534;2024-03-25T04:28:34;97618.13;;;7.91;53.40
56689;BME280;42565;53.342;-1.534;2024-03-25T04:31:01;97618.47;;;7.59;52.89
56689;BME280;42565;53.342;-1.534;2024-03-25T04:33:28;97615.05;;;6.40;56.11
56689;BME280;42565;53.342;-1.534;2024-03-25T04:35:55;97618.97;;;6.49;57.30
56689;BME280;42565;53.342;-1.534;2024-03-25T04:38:23;97615.82;;;6.48;56.99
56689;BME280;42565;53.342;-1.534;2024-03-25T04:40:50;97615.55;;;6.52;57.49
56689;BME280;42565;53.342;-1.534;2024-03-25T04:43:17;97614.16;;;7.00;57.14
56689;BME280;42565;53.342;-1.534;2024-03-25T04:45:45;97614.02;;;6.93;55.82
56689;BME280;42565;53.342;-1.534;2024-03-25T04:48:13;97611.04;;;7.12;55.39
56689;BME280;42565;53.342;-1.534;2024-03-25T04:50:40;97606.59;;;6.74;56.10
56689;BME280;42565;53.342;-1.534;2024-03-25T04:53:07;97603.74;;;6.16;57.22
56689;BME280;42565;53.342;-1.534;2024-03-25T04:55:35;97601.03;;;6.51;58.45
56689;BME280;42565;53.342;-1.534;2024-03-25T04:58:03;97597.25;;;6.40;57.67
56689;BME280;42565;53.342;-1.534;2024-03-25T05:00:30;97592.45;;;6.29;57.65
56689;BME280;42565;53.342;-1.534;2024-03-25T05:02:57;97591.56;;;5.84;60.32
56689;BME280;42565;53.342;-1.534;2024-03-25T05:05:24;97590.33;;;5.48;61.49
56689;BME280;42565;53.342;-1.534;2024-03-25T05:07:51;97587.43;;;5.35;62.19
56689;BME280;42565;53.342;-1.534;2024-03-25T05:10:17;97586.33;;;5.38;63.46
56689;BME280;42565;53.342;-1.534;2024-03-25T05:12:45;97585.41;;;4.83;63.89
56689;BME280;42565;53.342;-1.534;2024-03-25T05:15:12;97583.61;;;4.97;65.35
56689;BME280;42565;53.342;-1.534;2024-03-25T05:17:39;97581.03;;;4.93;64.72
56689;BME280;42565;53.342;-1.534;2024-03-25T05:20:07;97569.77;;;5.00;64.63
56689;BME280;42565;53.342;-1.534;2024-03-25T05:22:34;97570.71;;;4.72;66.20
56689;BME280;42565;53.342;-1.534;2024-03-25T05:25:02;97571.94;;;4.98;66.30
56689;BME280;42565;53.342;-1.534;2024-03-25T05:27:28;97564.36;;;4.84;66.43
56689;BME280;42565;53.342;-1.534;2024-03-25T05:29:55;97562.13;;;5.33;65.24
56689;BME280;42565;53.342;-1.534;2024-03-25T05:32:22;97562.50;;;5.68;63.63
56689;BME280;42565;53.342;-1.534;2024-03-25T05:34:49;97560.33;;;5.39;64.26
56689;BME280;42565;53.342;-1.534;2024-03-25T05:37:16;97561.40;;;5.18;64.45
56689;BME280;42565;53.342;-1.534;2024-03-25T05:39:43;97557.04;;;4.91;64.69
56689;BME280;42565;53.342;-1.534;2024-03-25T05:42:11;97555.26;;;5.19;64.80
56689;BME280;42565;53.342;-1.534;2024-03-25T05:44:38;97553.95;;;5.20;64.23
56689;BME280;42565;53.342;-1.534;2024-03-25T05:47:05;97556.47;;;4.94;65.43
56689;BME280;42565;53.342;-1.534;2024-03-25T05:49:32;97548.46;;;4.81;66.94
56689;BME280;42565;53.342;-1.534;2024-03-25T05:51:59;97550.50;;;4.75;66.66
56689;BME280;42565;53.342;-1.534;2024-03-25T05:54:26;97550.08;;;5.28;65.93
56689;BME280;42565;53.342;-1.534;2024-03-25T05:56:53;97546.84;;;4.98;65.41
56689;BME280;42565;53.342;-1.534;2024-03-25T05:59:20;97541.12;;;5.31;64.38
56689;BME280;42565;53.342;-1.534;2024-03-25T06:01:47;97541.76;;;5.14;65.97
56689;BME280;42565;53.342;-1.534;2024-03-25T06:04:14;97540.83;;;4.81;66.79
56689;BME280;42565;53.342;-1.534;2024-03-25T06:06:41;97537.08;;;4.97;65.89
56689;BME280;42565;53.342;-1.534;2024-03-25T06:09:07;97534.31;;;5.70;64.24
56689;BME280;42565;53.342;-1.534;2024-03-25T06:11:35;97534.36;;;5.68;64.22
56689;BME280;42565;53.342;-1.534;2024-03-25T06:14:02;97527.97;;;5.76;63.30
56689;BME280;42565;53.342;-1.534;2024-03-25T06:16:28;97525.82;;;6.16;61.91
56689;BME280;42565;53.342;-1.534;2024-03-25T06:18:55;97526.16;;;6.10;62.21
56689;BME280;42565;53.342;-1.534;2024-03-25T06:21:22;97521.53;;;5.74;63.48
56689;BME280;42565;53.342;-1.534;2024-03-25T06:23:49;97523.55;;;5.85;62.66
56689;BME280;42565;53.342;-1.534;2024-03-25T06:26:16;97520.86;;;6.16;62.63
56689;BME280;42565;53.342;-1.534;2024-03-25T06:28:43;97520.24;;;5.64;62.90
56689;BME280;42565;53.342;-1.534;2024-03-25T06:31:10;97522.44;;;6.45;61.68
56689;BME280;42565;53.342;-1.534;2024-03-25T06:33:37;97521.74;;;5.85;63.62
56689;BME280;42565;53.342;-1.534;2024-03-25T06:36:04;97513.85;;;5.31;65.69
56689;BME280;42565;53.342;-1.534;2024-03-25T06:38:32;97513.07;;;5.11;66.97
56689;BME280;42565;53.342;-1.534;2024-03-25T06:40:58;97509.47;;;5.24;66.33
56689;BME280;42565;53.342;-1.534;2024-03-25T06:43:25;97506.60;;;5.29;67.31
56689;BME280;42565;53.342;-1.534;2024-03-25T06:45:53;97501.02;;;5.59;66.30
56689;BME280;42565;53.342;-1.534;2024-03-25T06:48:20;97500.87;;;5.64;67.34
56689;BME280;42565;53.342;-1.534;2024-03-25T06:50:56;97506.33;;;5.53;69.81
56689;BME280;42565;53.342;-1.534;2024-03-25T06:53:24;97499.47;;;4.89;71.50
56689;BME280;42565;53.342;-1.534;2024-03-25T06:55:53;97499.71;;;5.59;68.52
56689;BME280;42565;53.342;-1.534;2024-03-25T06:58:21;97500.27;;;6.05;66.23
56689;BME280;42565;53.342;-1.534;2024-03-25T07:00:48;97498.36;;;6.28;65.56
56689;BME280;42565;53.342;-1.534;2024-03-25T07:03:16;97494.90;;;6.18;66.29
56689;BME280;42565;53.342;-1.534;2024-03-25T07:05:44;97497.52;;;6.19;64.28
56689;BME280;42565;53.342;-1.534;2024-03-25T07:08:12;97493.86;;;6.55;65.09
56689;BME280;42565;53.342;-1.534;2024-03-25T07:10:41;97496.67;;;4.70;69.96
56689;BME280;42565;53.342;-1.534;2024-03-25T07:13:09;97493.77;;;5.48;70.59
56689;BME280;42565;53.342;-1.534;2024-03-25T07:15:36;97493.04;;;5.47;72.66
56689;BME280;42565;53.342;-1.534;2024-03-25T07:18:04;97494.25;;;5.49;73.56
56689;BME280;42565;53.342;-1.534;2024-03-25T07:20:32;97488.05;;;5.14;74.44
56689;BME280;42565;53.342;-1.534;2024-03-25T07:22:59;97483.14;;;5.61;73.48
56689;BME280;42565;53.342;-1.534;2024-03-25T07:25:26;97482.32;;;5.98;72.52
56689;BME280;42565;53.342;-1.534;2024-03-25T07:27:53;97484.96;;;6.03;73.64
56689;BME280;42565;53.342;-1.534;2024-03-25T07:30:20;97481.37;;;5.97;73.68
56689;BME280;42565;53.342;-1.534;2024-03-25T07:32:47;97480.18;;;5.63;74.08
56689;BME280;42565;53.342;-1.534;2024-03-25T07:35:15;97482.00;;;5.35;76.41
56689;BME280;42565;53.342;-1.534;2024-03-25T07:37:43;97481.07;;;5.30;76.76
56689;BME280;42565;53.342;-1.534;2024-03-25T07:40:12;97476.64;;;5.96;75.61
56689;BME280;42565;53.342;-1.534;2024-03-25T07:42:40;97480.13;;;5.66;75.84
56689;BME280;42565;53.342;-1.534;2024-03-25T07:45:08;97482.00;;;6.23;75.50
56689;BME280;42565;53.342;-1.534;2024-03-25T07:47:35;97481.61;;;5.98;76.33
56689;BME280;42565;53.342;-1.534;2024-03-25T07:50:03;97478.95;;;6.01;77.24
56689;BME280;42565;53.342;-1.534;2024-03-25T07:52:30;97474.97;;;5.69;78.51
56689;BME280;42565;53.342;-1.534;2024-03-25T07:54:57;97474.69;;;5.28;79.03
56689;BME280;42565;53.342;-1.534;2024-03-25T07:57:25;97470.88;;;5.70;80.04
56689;BME280;42565;53.342;-1.534;2024-03-25T07:59:51;97469.96;;;6.22;78.13
56689;BME280;42565;53.342;-1.534;2024-03-25T08:02:18;97469.03;;;6.06;77.04
56689;BME280;42565;53.342;-1.534;2024-03-25T08:04:46;97468.22;;;5.87;77.02
56689;BME280;42565;53.342;-1.534;2024-03-25T08:07:12;97469.23;;;5.17;80.09
56689;BME280;42565;53.342;-1.534;2024-03-25T08:09:40;97467.12;;;5.25;80.12
56689;BME280;42565;53.342;-1.534;2024-03-25T08:12:07;97464.60;;;6.07;78.56
56689;BME280;42565;53.342;-1.534;2024-03-25T08:14:35;97461.03;;;5.81;79.31
56689;BME280;42565;53.342;-1.534;2024-03-25T08:17:02;97455.97;;;5.63;81.13
56689;BME280;42565;53.342;-1.534;2024-03-25T08:19:29;97457.18;;;5.65;80.49
56689;BME280;42565;53.342;-1.534;2024-03-25T08:21:57;97452.36;;;5.56;81.44
56689;BME280;42565;53.342;-1.534;2024-03-25T08:24:25;97449.63;;;5.15;82.12
56689;BME280;42565;53.342;-1.534;2024-03-25T08:26:52;97454.04;;;4.90;83.05
56689;BME280;42565;53.342;-1.534;2024-03-25T08:29:19;97454.38;;;5.15;83.51
56689;BME280;42565;53.342;-1.534;2024-03-25T08:31:46;97447.54;;;4.97;83.59
56689;BME280;42565;53.342;-1.534;2024-03-25T08:34:14;97448.61;;;5.12;85.21
56689;BME280;42565;53.342;-1.534;2024-03-25T08:36:40;97448.52;;;5.23;83.02
56689;BME280;42565;53.342;-1.534;2024-03-25T08:39:07;97445.48;;;5.54;83.61
56689;BME280;42565;53.342;-1.534;2024-03-25T08:41:34;97448.28;;;5.90;82.48
56689;BME280;42565;53.342;-1.534;2024-03-25T08:44:02;97444.26;;;4.78;86.16
56689;BME280;42565;53.342;-1.534;2024-03-25T08:46:30;97445.25;;;5.41;85.29
56689;BME280;42565;53.342;-1.534;2024-03-25T08:48:56;97450.95;;;4.64;87.55
56689;BME280;42565;53.342;-1.534;2024-03-25T08:51:24;97442.49;;;4.93;87.89
56689;BME280;42565;53.342;-1.534;2024-03-25T08:53:51;97437.27;;;5.59;86.41
56689;BME280;42565;53.342;-1.534;2024-03-25T08:56:17;97442.31;;;5.48;83.93
56689;BME280;42565;53.342;-1.534;2024-03-25T08:58:44;97435.52;;;4.34;88.13
56689;BME280;42565;53.342;-1.534;2024-03-25T09:01:12;97433.45;;;5.04;87.53
56689;BME280;42565;53.342;-1.534;2024-03-25T09:03:39;97439.36;;;4.96;88.31
56689;BME280;42565;53.342;-1.534;2024-03-25T09:06:06;97433.17;;;5.09;90.12
56689;BME280;42565;53.342;-1.534;2024-03-25T09:08:34;97437.82;;;4.73;90.49
56689;BME280;42565;53.342;-1.534;2024-03-25T09:11:01;97432.11;;;4.40;89.16
56689;BME280;42565;53.342;-1.534;2024-03-25T09:13:29;97435.00;;;4.37;91.13
56689;BME280;42565;53.342;-1.534;2024-03-25T09:15:57;97437.30;;;4.22;91.31
56689;BME280;42565;53.342;-1.534;2024-03-25T09:18:25;97435.19;;;5.02;89.30
56689;BME280;42565;53.342;-1.534;2024-03-25T09:20:52;97437.94;;;4.55;90.45
56689;BME280;42565;53.342;-1.534;2024-03-25T09:23:20;97443.33;;;5.16;89.96
56689;BME280;42565;53.342;-1.534;2024-03-25T09:25:52;97434.58;;;4.57;89.97
56689;BME280;42565;53.342;-1.534;2024-03-25T09:28:19;97441.68;;;4.65;91.00
56689;BME280;42565;53.342;-1.534;2024-03-25T09:30:48;97434.59;;;4.09;92.98
56689;BME280;42565;53.342;-1.534;2024-03-25T09:33:15;97438.21;;;4.33;93.91
56689;BME280;42565;53.342;-1.534;2024-03-25T09:35:42;97426.87;;;4.32;94.17
56689;BME280;42565;53.342;-1.534;2024-03-25T09:38:09;97424.80;;;4.81;92.89
56689;BME280;42565;53.342;-1.534;2024-03-25T09:40:40;97420.38;;;4.76;94.02
56689;BME280;42565;53.342;-1.534;2024-03-25T09:43:12;97418.77;;;4.54;93.08
56689;BME280;42565;53.342;-1.534;2024-03-25T09:45:40;97414.67;;;4.50;91.82
56689;BME280;42565;53.342;-1.534;2024-03-25T09:48:08;97415.53;;;5.36;91.42
56689;BME280;42565;53.342;-1.534;2024-03-25T09:50:37;97423.32;;;5.52;90.01
56689;BME280;42565;53.342;-1.534;2024-03-25T09:53:05;97413.58;;;5.61;89.91
56689;BME280;42565;53.342;-1.534;2024-03-25T09:55:32;97408.11;;;5.51;90.66
56689;BME280;42565;53.342;-1.534;2024-03-25T09:58:00;97402.44;;;5.23;91.81
56689;BME280;42565;53.342;-1.534;2024-03-25T10:00:27;97405.15;;;5.56;90.81
56689;BME280;42565;53.342;-1.534;2024-03-25T10:02:55;97405.55;;;5.59;90.22
56689;BME280;42565;53.342;-1.534;2024-03-25T10:05:22;97413.51;;;5.21;91.07
56689;BME280;42565;53.342;-1.534;2024-03-25T10:07:49;97403.44;;;4.92;93.92
56689;BME280;42565;53.342;-1.534;2024-03-25T10:10:19;97403.74;;;5.02;93.54
56689;BME280;42565;53.342;-1.534;2024-03-25T10:12:46;97400.54;;;5.40;91.73
56689;BME280;42565;53.342;-1.534;2024-03-25T10:15:16;97409.37;;;5.39;91.48
56689;BME280;42565;53.342;-1.534;2024-03-25T10:17:43;97402.25;;;4.78;94.04
56689;BME280;42565;53.342;-1.534;2024-03-25T10:20:14;97399.16;;;5.19;94.73
56689;BME280;42565;53.342;-1.534;2024-03-25T10:22:41;97394.29;;;5.64;92.58
56689;BME280;42565;53.342;-1.534;2024-03-25T10:25:21;97384.63;;;5.98;90.56
56689;BME280;42565;53.342;-1.534;2024-03-25T10:27:56;97387.63;;;4.84;93.76
56689;BME280;42565;53.342;-1.534;2024-03-25T10:30:23;97384.35;;;5.66;92.15
56689;BME280;42565;53.342;-1.534;2024-03-25T10:32:59;97383.92;;;4.48;96.07
56689;BME280;42565;53.342;-1.534;2024-03-25T10:35:27;97380.32;;;4.71;98.27
56689;BME280;42565;53.342;-1.534;2024-03-25T10:37:58;97374.46;;;4.70;97.62
56689;BME280;42565;53.342;-1.534;2024-03-25T10:40:28;97371.76;;;5.29;94.13
56689;BME280;42565;53.342;-1.534;2024-03-25T10:43:01;97370.01;;;4.96;96.53
56689;BME280;42565;53.342;-1.534;2024-03-25T10:45:29;97371.65;;;5.51;94.92
56689;BME280;42565;53.342;-1.534;2024-03-25T10:47:58;97369.94;;;4.98;97.56
56689;BME280;42565;53.342;-1.534;2024-03-25T10:50:29;97370.57;;;5.31;94.49
56689;BME280;42565;53.342;-1.534;2024-03-25T10:52:58;97369.40;;;5.33;95.39
56689;BME280;42565;53.342;-1.534;2024-03-25T10:55:26;97365.93;;;5.15;95.62
56689;BME280;42565;53.342;-1.534;2024-03-25T10:57:54;97365.97;;;5.72;94.01
56689;BME280;42565;53.342;-1.534;2024-03-25T11:00:23;97366.40;;;5.44;94.59
56689;BME280;42565;53.342;-1.534;2024-03-25T11:02:51;97366.88;;;5.19;95.80
56689;BME280;42565;53.342;-1.534;2024-03-25T11:05:19;97365.70;;;5.24;98.35
56689;BME280;42565;53.342;-1.534;2024-03-25T11:07:46;97361.36;;;4.83;98.12
56689;BME280;42565;53.342;-1.534;2024-03-25T11:10:13;97368.19;;;5.13;95.75
56689;BME280;42565;53.342;-1.534;2024-03-25T11:12:41;97358.16;;;5.21;94.54
56689;BME280;42565;53.342;-1.534;2024-03-25T11:15:09;97355.31;;;5.76;94.09
56689;BME280;42565;53.342;-1.534;2024-03-25T11:17:37;97351.62;;;5.30;96.19
56689;BME280;42565;53.342;-1.534;2024-03-25T11:20:16;97351.17;;;5.42;97.11
56689;BME280;42565;53.342;-1.534;2024-03-25T11:22:51;97344.98;;;4.89;97.50
56689;BME280;42565;53.342;-1.534;2024-03-25T11:25:20;97346.36;;;5.86;94.75
56689;BME280;42565;53.342;-1.534;2024-03-25T11:27:48;97339.67;;;5.26;96.85
56689;BME280;42565;53.342;-1.534;2024-03-25T11:30:15;97339.34;;;5.59;96.80
56689;BME280;42565;53.342;-1.534;2024-03-25T11:32:44;97349.71;;;4.80;96.91
56689;BME280;42565;53.342;-1.534;2024-03-25T11:35:12;97340.67;;;4.89;100.00
56689;BME280;42565;53.342;-1.534;2024-03-25T11:37:40;97329.28;;;4.40;100.00
56689;BME280;42565;53.342;-1.534;2024-03-25T11:40:09;97325.80;;;4.99;99.41
56689;BME280;42565;53.342;-1.534;2024-03-25T11:42:38;97323.02;;;5.26;97.69
56689;BME280;42565;53.342;-1.534;2024-03-25T11:45:07;97324.66;;;5.28;98.72
56689;BME280;42565;53.342;-1.534;2024-03-25T11:47:35;97321.54;;;5.89;97.14
56689;BME280;42565;53.342;-1.534;2024-03-25T11:50:08;97317.09;;;6.33;94.21
56689;BME280;42565;53.342;-1.534;2024-03-25T11:52:41;97316.53;;;5.75;95.33
56689;BME280;42565;53.342;-1.534;2024-03-25T11:55:09;97326.69;;;5.60;96.25
56689;BME280;42565;53.342;-1.534;2024-03-25T11:57:37;97314.88;;;5.07;99.58
56689;BME280;42565;53.342;-1.534;2024-03-25T12:00:05;97311.14;;;5.09;100.00
56689;BME280;42565;53.342;-1.534;2024-03-25T12:02:32;97303.14;;;5.19;100.00
56689;BME280;42565;53.342;-1.534;2024-03-25T12:05:00;97305.00;;;5.53;98.50
56689;BME280;42565;53.342;-1.534;2024-03-25T12:07:27;97293.86;;;5.05;100.00
56689;BME280;42565;53.342;-1.534;2024-03-25T12:09:53;97295.07;;;5.25;100.00
56689;BME280;42565;53.342;-1.534;2024-03-25T12:12:20;97290.12;;;5.88;96.84
56689;BME280;42565;53.342;-1.534;2024-03-25T12:14:48;97284.57;;;5.83;97.57
56689;BME280;42565;53.342;-1.534;2024-03-25T12:17:16;97286.51;;;5.78;97.74
56689;BME280;42565;53.342;-1.534;2024-03-25T12:19:44;97278.52;;;5.31;98.17
56689;BME280;42565;53.342;-1.534;2024-03-25T12:22:11;97285.28;;;4.75;100.00
56689;BME280;42565;53.342;-1.534;2024-03-25T12:24:49;97272.04;;;5.03;100.00
56689;BME280;42565;53.342;-1.534;2024-03-25T12:27:16;97276.08;;;5.05;100.00
56689;BME280;42565;53.342;-1.534;2024-03-25T12:29:59;97270.38;;;5.09;100.00
56689;BME280;42565;53.342;-1.534;2024-03-25T12:32:42;97266.38;;;4.97;100.00
56689;BME280;42565;53.342;-1.534;2024-03-25T12:35:11;97261.70;;;5.74;99.85
56689;BME280;42565;53.342;-1.534;2024-03-25T12:37:40;97263.29;;;5.71;98.27
56689;BME280;42565;53.342;-1.534;2024-03-25T12:40:10;97260.77;;;5.36;98.02
56689;BME280;42565;53.342;-1.534;2024-03-25T12:42:38;97265.89;;;5.77;97.66
56689;BME280;42565;53.342;-1.534;2024-03-25T12:45:06;97252.36;;;6.14;96.42
56689;BME280;42565;53.342;-1.534;2024-03-25T12:47:33;97265.34;;;6.29;97.90
56689;BME280;42565;53.342;-1.534;2024-03-25T12:50:00;97259.57;;;5.46;99.11
56689;BME280;42565;53.342;-1.534;2024-03-25T12:52:27;97254.48;;;5.83;98.77
56689;BME280;42565;53.342;-1.534;2024-03-25T12:54:55;97250.49;;;6.07;95.69
56689;BME280;42565;53.342;-1.534;2024-03-25T12:57:27;97249.32;;;6.38;94.78
56689;BME280;42565;53.342;-1.534;2024-03-25T12:59:54;97247.11;;;5.74;96.39
56689;BME280;42565;53.342;-1.534;2024-03-25T13:02:21;97244.22;;;5.71;97.07